Umiat, Alaska
Current Conditions -  °F | °C
As of 9:53 AM on Saturday 25 Oct 2014 (Local Time) from PAQT Reporting Station
Scattered Clouds Scattered Clouds  
Wind Chill: -5°   Ceiling: Unl
Heat Index:   Visibility: 10mi
Dew Point:   Wind: 7mph
Humidity: 87%   Direction: 200°SSW
Pressure: 29.82"   Gusts: NA
Location:  69.37°N, 152.13°W
Report Text: PAQT 251753Z AUTO 20006KT 10SM FEW002 SCT110 M14/M16 A2982 RMK SLP098 60000 I1001 I6002 T11391156 11056 21139 56003 TSNO $ VIA AUTODIAL
Loading
Personal Weather Stations






























Interactive Weather Map
Tropical Storm Tracking
New forecast layout! Learn more

10-Day Weather Forecast

Advertisements
Track Severe Weather on mobile